<?xml version="1.0" encoding="UTF-8" standalone="no" ?>
<gpx xmlns="http://www.topografix.com/GPX/1/1" xmlns:xsi="http://www.w3.org/2001/XMLSchema-instance" xsi:schemaLocation="http://www.topografix.com/GPX/1/1 http://www.topografix.com/GPX/1/1/gpx.xsd" version="1.1" creator="VisuGPX - https://www.visugpx.com">
  <metadata>
    <name>traversée du lac de Sanguinet</name>
    <desc><![CDATA[Rentrée des classes. Les man%u0153uvres reprennent après les deux mois de navigation touristiques.]]></desc>
  </metadata>
  <trk>
    <name><![CDATA[ONmove 100 - 01/09/2016]]></name>
    <trkseg>
      <trkpt lat="44.494" lon="-1.07979">
        <ele>20</ele>
        <time>2016-09-01T14:13:45Z</time>
      </trkpt>
      <trkpt lat="44.49286" lon="-1.08103">
        <ele>20</ele>
        <time>2016-09-01T14:17:54Z</time>
      </trkpt>
      <trkpt lat="44.49221" lon="-1.08273">
        <ele>20</ele>
        <time>2016-09-01T14:18:49Z</time>
      </trkpt>
      <trkpt lat="44.49165" lon="-1.08451">
        <ele>20</ele>
        <time>2016-09-01T14:19:44Z</time>
      </trkpt>
      <trkpt lat="44.49098" lon="-1.08614">
        <ele>20</ele>
        <time>2016-09-01T14:20:39Z</time>
      </trkpt>
      <trkpt lat="44.49032" lon="-1.08777">
        <ele>20</ele>
        <time>2016-09-01T14:21:34Z</time>
      </trkpt>
      <trkpt lat="44.48965" lon="-1.08946">
        <ele>20</ele>
        <time>2016-09-01T14:22:29Z</time>
      </trkpt>
      <trkpt lat="44.48912" lon="-1.0912">
        <ele>20</ele>
        <time>2016-09-01T14:23:26Z</time>
      </trkpt>
      <trkpt lat="44.48845" lon="-1.09293">
        <ele>20</ele>
        <time>2016-09-01T14:24:24Z</time>
      </trkpt>
      <trkpt lat="44.48987" lon="-1.09437">
        <ele>20</ele>
        <time>2016-09-01T14:26:59Z</time>
      </trkpt>
      <trkpt lat="44.49142" lon="-1.09554">
        <ele>20</ele>
        <time>2016-09-01T14:29:04Z</time>
      </trkpt>
      <trkpt lat="44.49099" lon="-1.09794">
        <ele>20</ele>
        <time>2016-09-01T14:30:21Z</time>
      </trkpt>
      <trkpt lat="44.49061" lon="-1.10036">
        <ele>20</ele>
        <time>2016-09-01T14:31:39Z</time>
      </trkpt>
      <trkpt lat="44.49029" lon="-1.10232">
        <ele>20</ele>
        <time>2016-09-01T14:32:41Z</time>
      </trkpt>
      <trkpt lat="44.49001" lon="-1.10436">
        <ele>20</ele>
        <time>2016-09-01T14:33:46Z</time>
      </trkpt>
      <trkpt lat="44.48948" lon="-1.10622">
        <ele>20</ele>
        <time>2016-09-01T14:34:44Z</time>
      </trkpt>
      <trkpt lat="44.48893" lon="-1.10814">
        <ele>20</ele>
        <time>2016-09-01T14:35:41Z</time>
      </trkpt>
      <trkpt lat="44.48847" lon="-1.10982">
        <ele>20</ele>
        <time>2016-09-01T14:36:31Z</time>
      </trkpt>
      <trkpt lat="44.48806" lon="-1.11163">
        <ele>20</ele>
        <time>2016-09-01T14:37:24Z</time>
      </trkpt>
      <trkpt lat="44.48765" lon="-1.11333">
        <ele>20</ele>
        <time>2016-09-01T14:38:14Z</time>
      </trkpt>
      <trkpt lat="44.48734" lon="-1.11513">
        <ele>20</ele>
        <time>2016-09-01T14:39:06Z</time>
      </trkpt>
      <trkpt lat="44.487" lon="-1.1169">
        <ele>20</ele>
        <time>2016-09-01T14:39:56Z</time>
      </trkpt>
      <trkpt lat="44.48661" lon="-1.11863">
        <ele>20</ele>
        <time>2016-09-01T14:40:46Z</time>
      </trkpt>
      <trkpt lat="44.48635" lon="-1.12039">
        <ele>20</ele>
        <time>2016-09-01T14:41:34Z</time>
      </trkpt>
      <trkpt lat="44.48609" lon="-1.1222">
        <ele>20</ele>
        <time>2016-09-01T14:42:26Z</time>
      </trkpt>
      <trkpt lat="44.48588" lon="-1.12398">
        <ele>20</ele>
        <time>2016-09-01T14:43:16Z</time>
      </trkpt>
      <trkpt lat="44.48558" lon="-1.12576">
        <ele>20</ele>
        <time>2016-09-01T14:44:04Z</time>
      </trkpt>
      <trkpt lat="44.48532" lon="-1.12751">
        <ele>20</ele>
        <time>2016-09-01T14:44:51Z</time>
      </trkpt>
      <trkpt lat="44.48511" lon="-1.12937">
        <ele>20</ele>
        <time>2016-09-01T14:45:41Z</time>
      </trkpt>
      <trkpt lat="44.48494" lon="-1.13117">
        <ele>20</ele>
        <time>2016-09-01T14:46:29Z</time>
      </trkpt>
      <trkpt lat="44.4848" lon="-1.13302">
        <ele>20</ele>
        <time>2016-09-01T14:47:19Z</time>
      </trkpt>
      <trkpt lat="44.48467" lon="-1.13485">
        <ele>20</ele>
        <time>2016-09-01T14:48:09Z</time>
      </trkpt>
      <trkpt lat="44.4844" lon="-1.13663">
        <ele>20</ele>
        <time>2016-09-01T14:48:56Z</time>
      </trkpt>
      <trkpt lat="44.48362" lon="-1.13815">
        <ele>20</ele>
        <time>2016-09-01T14:49:41Z</time>
      </trkpt>
      <trkpt lat="44.483" lon="-1.13972">
        <ele>20</ele>
        <time>2016-09-01T14:50:26Z</time>
      </trkpt>
      <trkpt lat="44.4824" lon="-1.14144">
        <ele>20</ele>
        <time>2016-09-01T14:51:14Z</time>
      </trkpt>
      <trkpt lat="44.48187" lon="-1.14315">
        <ele>20</ele>
        <time>2016-09-01T14:52:01Z</time>
      </trkpt>
      <trkpt lat="44.48132" lon="-1.1448">
        <ele>20</ele>
        <time>2016-09-01T14:52:46Z</time>
      </trkpt>
      <trkpt lat="44.48086" lon="-1.14659">
        <ele>20</ele>
        <time>2016-09-01T14:53:34Z</time>
      </trkpt>
      <trkpt lat="44.4804" lon="-1.14831">
        <ele>20</ele>
        <time>2016-09-01T14:54:19Z</time>
      </trkpt>
      <trkpt lat="44.47992" lon="-1.14998">
        <ele>20</ele>
        <time>2016-09-01T14:55:04Z</time>
      </trkpt>
      <trkpt lat="44.4795" lon="-1.15169">
        <ele>20</ele>
        <time>2016-09-01T14:55:49Z</time>
      </trkpt>
      <trkpt lat="44.47895" lon="-1.15339">
        <ele>20</ele>
        <time>2016-09-01T14:56:36Z</time>
      </trkpt>
      <trkpt lat="44.47848" lon="-1.15515">
        <ele>20</ele>
        <time>2016-09-01T14:57:24Z</time>
      </trkpt>
      <trkpt lat="44.47811" lon="-1.15686">
        <ele>20</ele>
        <time>2016-09-01T14:58:09Z</time>
      </trkpt>
      <trkpt lat="44.47774" lon="-1.15858">
        <ele>20</ele>
        <time>2016-09-01T14:58:54Z</time>
      </trkpt>
      <trkpt lat="44.47742" lon="-1.16038">
        <ele>20</ele>
        <time>2016-09-01T14:59:41Z</time>
      </trkpt>
      <trkpt lat="44.47708" lon="-1.1621">
        <ele>20</ele>
        <time>2016-09-01T15:00:26Z</time>
      </trkpt>
      <trkpt lat="44.47667" lon="-1.1639">
        <ele>20</ele>
        <time>2016-09-01T15:01:14Z</time>
      </trkpt>
      <trkpt lat="44.47628" lon="-1.16568">
        <ele>20</ele>
        <time>2016-09-01T15:02:01Z</time>
      </trkpt>
      <trkpt lat="44.47592" lon="-1.1674">
        <ele>20</ele>
        <time>2016-09-01T15:02:46Z</time>
      </trkpt>
      <trkpt lat="44.47551" lon="-1.16924">
        <ele>20</ele>
        <time>2016-09-01T15:03:34Z</time>
      </trkpt>
      <trkpt lat="44.47516" lon="-1.17102">
        <ele>20</ele>
        <time>2016-09-01T15:04:19Z</time>
      </trkpt>
      <trkpt lat="44.47472" lon="-1.17274">
        <ele>20</ele>
        <time>2016-09-01T15:05:06Z</time>
      </trkpt>
      <trkpt lat="44.47433" lon="-1.17449">
        <ele>20</ele>
        <time>2016-09-01T15:05:54Z</time>
      </trkpt>
      <trkpt lat="44.47406" lon="-1.17634">
        <ele>20</ele>
        <time>2016-09-01T15:06:46Z</time>
      </trkpt>
      <trkpt lat="44.47381" lon="-1.17813">
        <ele>20</ele>
        <time>2016-09-01T15:07:34Z</time>
      </trkpt>
      <trkpt lat="44.4737" lon="-1.18002">
        <ele>20</ele>
        <time>2016-09-01T15:08:26Z</time>
      </trkpt>
      <trkpt lat="44.47365" lon="-1.18186">
        <ele>20</ele>
        <time>2016-09-01T15:09:16Z</time>
      </trkpt>
      <trkpt lat="44.47359" lon="-1.18366">
        <ele>20</ele>
        <time>2016-09-01T15:10:06Z</time>
      </trkpt>
      <trkpt lat="44.47355" lon="-1.18554">
        <ele>20</ele>
        <time>2016-09-01T15:10:59Z</time>
      </trkpt>
      <trkpt lat="44.47343" lon="-1.18741">
        <ele>20</ele>
        <time>2016-09-01T15:11:51Z</time>
      </trkpt>
      <trkpt lat="44.47328" lon="-1.18927">
        <ele>20</ele>
        <time>2016-09-01T15:12:44Z</time>
      </trkpt>
      <trkpt lat="44.47333" lon="-1.19108">
        <ele>20</ele>
        <time>2016-09-01T15:13:36Z</time>
      </trkpt>
      <trkpt lat="44.47348" lon="-1.19294">
        <ele>20</ele>
        <time>2016-09-01T15:14:39Z</time>
      </trkpt>
      <trkpt lat="44.4742" lon="-1.19134">
        <ele>20</ele>
        <time>2016-09-01T15:15:44Z</time>
      </trkpt>
      <trkpt lat="44.47439" lon="-1.18952">
        <ele>20</ele>
        <time>2016-09-01T15:16:29Z</time>
      </trkpt>
      <trkpt lat="44.47463" lon="-1.18771">
        <ele>20</ele>
        <time>2016-09-01T15:17:09Z</time>
      </trkpt>
      <trkpt lat="44.47484" lon="-1.18589">
        <ele>20</ele>
        <time>2016-09-01T15:17:49Z</time>
      </trkpt>
      <trkpt lat="44.47512" lon="-1.18407">
        <ele>20</ele>
        <time>2016-09-01T15:18:31Z</time>
      </trkpt>
      <trkpt lat="44.47535" lon="-1.18231">
        <ele>20</ele>
        <time>2016-09-01T15:19:11Z</time>
      </trkpt>
      <trkpt lat="44.47578" lon="-1.18057">
        <ele>20</ele>
        <time>2016-09-01T15:19:56Z</time>
      </trkpt>
      <trkpt lat="44.47627" lon="-1.17887">
        <ele>20</ele>
        <time>2016-09-01T15:20:41Z</time>
      </trkpt>
      <trkpt lat="44.47673" lon="-1.17718">
        <ele>20</ele>
        <time>2016-09-01T15:21:26Z</time>
      </trkpt>
      <trkpt lat="44.47702" lon="-1.1754">
        <ele>20</ele>
        <time>2016-09-01T15:22:09Z</time>
      </trkpt>
      <trkpt lat="44.47725" lon="-1.17356">
        <ele>20</ele>
        <time>2016-09-01T15:22:51Z</time>
      </trkpt>
      <trkpt lat="44.47762" lon="-1.17181">
        <ele>20</ele>
        <time>2016-09-01T15:23:36Z</time>
      </trkpt>
      <trkpt lat="44.47798" lon="-1.17001">
        <ele>20</ele>
        <time>2016-09-01T15:24:19Z</time>
      </trkpt>
      <trkpt lat="44.47834" lon="-1.16822">
        <ele>20</ele>
        <time>2016-09-01T15:25:01Z</time>
      </trkpt>
      <trkpt lat="44.47883" lon="-1.16649">
        <ele>20</ele>
        <time>2016-09-01T15:25:44Z</time>
      </trkpt>
      <trkpt lat="44.47942" lon="-1.1649">
        <ele>20</ele>
        <time>2016-09-01T15:26:26Z</time>
      </trkpt>
      <trkpt lat="44.47963" lon="-1.16307">
        <ele>20</ele>
        <time>2016-09-01T15:27:06Z</time>
      </trkpt>
      <trkpt lat="44.48012" lon="-1.16136">
        <ele>20</ele>
        <time>2016-09-01T15:27:49Z</time>
      </trkpt>
      <trkpt lat="44.48057" lon="-1.15963">
        <ele>20</ele>
        <time>2016-09-01T15:28:36Z</time>
      </trkpt>
      <trkpt lat="44.48097" lon="-1.15783">
        <ele>20</ele>
        <time>2016-09-01T15:29:21Z</time>
      </trkpt>
      <trkpt lat="44.48142" lon="-1.15616">
        <ele>20</ele>
        <time>2016-09-01T15:30:04Z</time>
      </trkpt>
      <trkpt lat="44.48175" lon="-1.1544">
        <ele>20</ele>
        <time>2016-09-01T15:30:46Z</time>
      </trkpt>
      <trkpt lat="44.48212" lon="-1.15267">
        <ele>20</ele>
        <time>2016-09-01T15:31:26Z</time>
      </trkpt>
      <trkpt lat="44.48247" lon="-1.15081">
        <ele>20</ele>
        <time>2016-09-01T15:32:09Z</time>
      </trkpt>
      <trkpt lat="44.48292" lon="-1.14905">
        <ele>20</ele>
        <time>2016-09-01T15:32:54Z</time>
      </trkpt>
      <trkpt lat="44.48333" lon="-1.1474">
        <ele>20</ele>
        <time>2016-09-01T15:33:36Z</time>
      </trkpt>
      <trkpt lat="44.48381" lon="-1.14565">
        <ele>20</ele>
        <time>2016-09-01T15:34:21Z</time>
      </trkpt>
      <trkpt lat="44.48416" lon="-1.14392">
        <ele>20</ele>
        <time>2016-09-01T15:35:01Z</time>
      </trkpt>
      <trkpt lat="44.48463" lon="-1.14216">
        <ele>20</ele>
        <time>2016-09-01T15:35:44Z</time>
      </trkpt>
      <trkpt lat="44.48512" lon="-1.14051">
        <ele>20</ele>
        <time>2016-09-01T15:36:26Z</time>
      </trkpt>
      <trkpt lat="44.48566" lon="-1.13885">
        <ele>20</ele>
        <time>2016-09-01T15:37:09Z</time>
      </trkpt>
      <trkpt lat="44.48621" lon="-1.13711">
        <ele>20</ele>
        <time>2016-09-01T15:37:54Z</time>
      </trkpt>
      <trkpt lat="44.48665" lon="-1.13544">
        <ele>20</ele>
        <time>2016-09-01T15:38:36Z</time>
      </trkpt>
      <trkpt lat="44.487" lon="-1.13368">
        <ele>20</ele>
        <time>2016-09-01T15:39:16Z</time>
      </trkpt>
      <trkpt lat="44.48729" lon="-1.1319">
        <ele>20</ele>
        <time>2016-09-01T15:39:56Z</time>
      </trkpt>
      <trkpt lat="44.48755" lon="-1.13007">
        <ele>20</ele>
        <time>2016-09-01T15:40:36Z</time>
      </trkpt>
      <trkpt lat="44.48774" lon="-1.12824">
        <ele>20</ele>
        <time>2016-09-01T15:41:16Z</time>
      </trkpt>
      <trkpt lat="44.488" lon="-1.12641">
        <ele>20</ele>
        <time>2016-09-01T15:41:56Z</time>
      </trkpt>
      <trkpt lat="44.48829" lon="-1.12464">
        <ele>20</ele>
        <time>2016-09-01T15:42:36Z</time>
      </trkpt>
      <trkpt lat="44.4885" lon="-1.12284">
        <ele>20</ele>
        <time>2016-09-01T15:43:14Z</time>
      </trkpt>
      <trkpt lat="44.48877" lon="-1.12098">
        <ele>20</ele>
        <time>2016-09-01T15:43:54Z</time>
      </trkpt>
      <trkpt lat="44.48895" lon="-1.1192">
        <ele>20</ele>
        <time>2016-09-01T15:44:34Z</time>
      </trkpt>
      <trkpt lat="44.48919" lon="-1.11735">
        <ele>20</ele>
        <time>2016-09-01T15:45:16Z</time>
      </trkpt>
      <trkpt lat="44.48944" lon="-1.11558">
        <ele>20</ele>
        <time>2016-09-01T15:45:54Z</time>
      </trkpt>
      <trkpt lat="44.48959" lon="-1.11383">
        <ele>20</ele>
        <time>2016-09-01T15:46:31Z</time>
      </trkpt>
      <trkpt lat="44.48978" lon="-1.11194">
        <ele>20</ele>
        <time>2016-09-01T15:47:11Z</time>
      </trkpt>
      <trkpt lat="44.48994" lon="-1.11011">
        <ele>20</ele>
        <time>2016-09-01T15:47:51Z</time>
      </trkpt>
      <trkpt lat="44.49014" lon="-1.10838">
        <ele>20</ele>
        <time>2016-09-01T15:48:31Z</time>
      </trkpt>
      <trkpt lat="44.49034" lon="-1.10659">
        <ele>20</ele>
        <time>2016-09-01T15:49:11Z</time>
      </trkpt>
      <trkpt lat="44.49048" lon="-1.10475">
        <ele>20</ele>
        <time>2016-09-01T15:49:54Z</time>
      </trkpt>
      <trkpt lat="44.49058" lon="-1.10284">
        <ele>20</ele>
        <time>2016-09-01T15:50:39Z</time>
      </trkpt>
      <trkpt lat="44.49072" lon="-1.10104">
        <ele>20</ele>
        <time>2016-09-01T15:51:19Z</time>
      </trkpt>
      <trkpt lat="44.49093" lon="-1.09915">
        <ele>20</ele>
        <time>2016-09-01T15:52:09Z</time>
      </trkpt>
      <trkpt lat="44.4911" lon="-1.09739">
        <ele>20</ele>
        <time>2016-09-01T15:52:51Z</time>
      </trkpt>
      <trkpt lat="44.49122" lon="-1.09554">
        <ele>20</ele>
        <time>2016-09-01T15:53:34Z</time>
      </trkpt>
      <trkpt lat="44.49132" lon="-1.09379">
        <ele>20</ele>
        <time>2016-09-01T15:54:14Z</time>
      </trkpt>
      <trkpt lat="44.49125" lon="-1.09195">
        <ele>20</ele>
        <time>2016-09-01T15:54:54Z</time>
      </trkpt>
      <trkpt lat="44.49116" lon="-1.09003">
        <ele>20</ele>
        <time>2016-09-01T15:55:41Z</time>
      </trkpt>
      <trkpt lat="44.49139" lon="-1.08821">
        <ele>20</ele>
        <time>2016-09-01T15:56:29Z</time>
      </trkpt>
      <trkpt lat="44.49172" lon="-1.08635">
        <ele>20</ele>
        <time>2016-09-01T15:57:21Z</time>
      </trkpt>
      <trkpt lat="44.49228" lon="-1.08464">
        <ele>20</ele>
        <time>2016-09-01T15:58:11Z</time>
      </trkpt>
      <trkpt lat="44.49288" lon="-1.08291">
        <ele>20</ele>
        <time>2016-09-01T15:59:04Z</time>
      </trkpt>
      <trkpt lat="44.49343" lon="-1.08119">
        <ele>20</ele>
        <time>2016-09-01T15:59:54Z</time>
      </trkpt>
      <trkpt lat="44.49406" lon="-1.07959">
        <ele>21</ele>
        <time>2016-09-01T16:11:14Z</time>
      </trkpt>
    </trkseg>
  </trk>
</gpx>